Time;durP1;ratioP1;P1;durP2;ratioP2;P2;SDS_P1;SDS_P2;PMS_P1;PMS_P2;Temp;Humidity;BMP_temperature;BMP_pressure;BME280_temperature;BME280_humidity;BME280_pressure;Samples;Min_cycle;Max_cycle;Signal;HPM_P1;HPM_P2
2021/09/27 00:03:43;;;;;;;18.90;17.20;;;18.10;99.90;;;;;;10486050;28;20248;-84
2021/09/27 00:08:47;;;;;;;18.47;16.87;;;18.00;99.90;;;;;;10469639;28;20209;-86
2021/09/27 00:13:53;;;;;;;18.43;16.53;;;18.00;99.90;;;;;;10471337;28;20246;-84
2021/09/27 00:18:56;;;;;;;18.93;17.23;;;18.00;99.90;;;;;;10488016;28;20200;-84
2021/09/27 00:24:00;;;;;;;18.20;16.70;;;18.00;99.90;;;;;;10473689;28;20286;-85
2021/09/27 00:29:02;;;;;;;17.77;16.33;;;17.90;99.90;;;;;;10496353;28;20235;-85
2021/09/27 00:34:04;;;;;;;18.47;16.90;;;17.90;99.90;;;;;;10484390;28;20242;-85
2021/09/27 00:39:08;;;;;;;19.30;17.57;;;17.90;99.90;;;;;;10486731;28;20197;-85
2021/09/27 00:44:10;;;;;;;19.73;18.03;;;17.80;99.90;;;;;;10486935;28;20251;-85
2021/09/27 00:49:12;;;;;;;18.50;17.00;;;17.80;99.90;;;;;;10478078;28;20276;-84
2021/09/27 00:54:21;;;;;;;18.63;17.03;;;17.80;99.90;;;;;;10445645;28;20201;-84
2021/09/27 00:59:26;;;;;;;18.50;16.90;;;17.80;99.90;;;;;;10436204;28;20700;-85
2021/09/27 01:04:28;;;;;;;19.80;18.07;;;17.70;99.90;;;;;;10458622;28;20224;-85
2021/09/27 01:09:43;;;;;;;18.90;17.37;;;17.70;99.90;;;;;;10448752;28;20220;-85
2021/09/27 01:15:05;;;;;;;18.60;17.00;;;17.70;99.90;;;;;;10462282;28;20189;-85
2021/09/27 01:20:50;;;;;;;19.70;18.10;;;17.70;99.90;;;;;;10444352;28;20288;-85
2021/09/27 01:26:17;;;;;;;20.00;18.20;;;17.70;99.90;;;;;;10484257;28;20262;-84
2021/09/27 01:31:52;;;;;;;18.97;17.30;;;17.70;99.90;;;;;;10484858;28;20216;-85
2021/09/27 01:37:03;;;;;;;17.37;15.77;;;17.70;99.90;;;;;;10479705;28;20227;-85
2021/09/27 01:42:10;;;;;;;17.97;16.17;;;17.80;99.90;;;;;;10479571;28;20228;-85
2021/09/27 01:47:18;;;;;;;18.60;17.10;;;17.80;99.90;;;;;;10495562;28;20216;-84
2021/09/27 01:52:29;;;;;;;18.30;16.80;;;17.80;99.90;;;;;;10479357;28;20769;-85
2021/09/27 01:57:42;;;;;;;18.10;16.50;;;17.90;99.90;;;;;;10495507;28;20283;-84
2021/09/27 02:02:50;;;;;;;17.90;16.00;;;17.90;99.90;;;;;;10478495;28;20256;-85
2021/09/27 02:08:00;;;;;;;18.10;16.50;;;17.90;99.90;;;;;;10478649;28;20246;-84
2021/09/27 02:13:09;;;;;;;16.50;15.07;;;17.90;99.90;;;;;;10484680;28;20753;-85
2021/09/27 02:18:17;;;;;;;15.80;14.50;;;17.90;99.90;;;;;;10493042;28;20204;-85
2021/09/27 02:23:26;;;;;;;17.40;15.80;;;17.90;99.90;;;;;;10492477;28;20328;-84
2021/09/27 02:28:29;;;;;;;18.87;17.13;;;18.00;99.90;;;;;;10475365;28;20228;-84
2021/09/27 02:33:39;;;;;;;18.57;16.87;;;18.00;99.90;;;;;;10477057;28;20584;-85
2021/09/27 02:38:51;;;;;;;17.77;16.27;;;18.00;99.90;;;;;;10495186;28;20319;-83
2021/09/27 02:43:53;;;;;;;16.80;15.20;;;18.00;99.90;;;;;;10496769;28;20605;-85
2021/09/27 02:48:57;;;;;;;17.10;15.33;;;18.00;99.90;;;;;;10474019;28;20355;-84
2021/09/27 02:54:01;;;;;;;17.60;16.10;;;18.00;99.90;;;;;;10478122;28;20224;-84
2021/09/27 02:59:14;;;;;;;15.80;14.40;;;18.00;99.90;;;;;;10451367;28;20228;-84
2021/09/27 03:04:24;;;;;;;16.77;15.47;;;18.00;99.90;;;;;;10451600;28;20263;-84
2021/09/27 03:09:38;;;;;;;16.73;15.23;;;18.00;99.90;;;;;;10451847;28;20225;-84
2021/09/27 03:15:07;;;;;;;16.87;15.33;;;18.00;99.90;;;;;;10452190;28;20194;-85
2021/09/27 03:20:23;;;;;;;16.17;14.67;;;18.00;99.90;;;;;;10441989;28;20602;-85
2021/09/27 03:25:38;;;;;;;17.57;16.17;;;18.00;99.90;;;;;;10466942;28;20262;-84
2021/09/27 03:30:48;;;;;;;15.77;14.40;;;18.00;99.90;;;;;;10466867;28;20224;-84
2021/09/27 03:36:05;;;;;;;16.03;14.80;;;18.00;99.90;;;;;;10469018;28;20225;-83
2021/09/27 03:41:17;;;;;;;15.77;14.47;;;18.00;99.90;;;;;;10483963;28;20316;-84
2021/09/27 03:46:28;;;;;;;17.00;15.57;;;18.00;99.90;;;;;;10469046;28;20255;-84
2021/09/27 03:51:35;;;;;;;17.50;16.00;;;18.00;99.90;;;;;;10486873;28;20209;-83
2021/09/27 03:56:49;;;;;;;15.30;13.90;;;18.00;99.90;;;;;;10504319;28;20291;-84
2021/09/27 04:01:59;;;;;;;16.07;14.70;;;18.00;99.90;;;;;;10466210;28;20705;-85
2021/09/27 04:07:14;;;;;;;15.43;14.23;;;18.00;99.90;;;;;;10469850;28;20327;-85
2021/09/27 04:12:33;;;;;;;15.40;13.97;;;18.00;99.90;;;;;;10483138;28;20223;-85
2021/09/27 04:17:48;;;;;;;14.93;13.63;;;18.10;99.90;;;;;;10469325;28;20196;-85
2021/09/27 04:23:05;;;;;;;15.23;13.97;;;18.00;99.90;;;;;;10468848;28;20221;-83
2021/09/27 04:28:34;;;;;;;15.73;14.50;;;18.00;99.90;;;;;;10469903;28;20201;-84
2021/09/27 04:34:00;;;;;;;15.73;14.50;;;18.00;99.90;;;;;;10461585;28;20658;-83
2021/09/27 04:39:09;;;;;;;17.07;15.63;;;18.00;99.90;;;;;;10486963;28;20192;-83
2021/09/27 04:44:27;;;;;;;15.00;13.70;;;17.90;99.90;;;;;;10466993;28;20350;-84
2021/09/27 04:49:46;;;;;;;16.77;15.27;;;17.90;99.90;;;;;;10461886;28;20315;-84
2021/09/27 04:55:07;;;;;;;15.37;14.00;;;17.90;99.90;;;;;;10478225;28;20501;-83
2021/09/27 05:00:20;;;;;;;16.10;14.80;;;17.80;99.90;;;;;;10479869;28;20651;-83
2021/09/27 05:05:38;;;;;;;16.20;14.90;;;17.70;99.90;;;;;;10478915;28;20220;-83
2021/09/27 05:10:58;;;;;;;15.87;14.47;;;17.70;99.90;;;;;;10479300;28;20315;-83
2021/09/27 05:16:13;;;;;;;17.77;16.17;;;17.60;99.90;;;;;;10463199;28;20208;-83
2021/09/27 05:21:42;;;;;;;17.20;15.80;;;17.50;99.90;;;;;;10480993;28;20219;-84
2021/09/27 05:27:02;;;;;;;18.60;17.00;;;17.40;99.90;;;;;;10436429;28;20224;-84
2021/09/27 05:32:18;;;;;;;17.83;16.13;;;17.40;99.90;;;;;;10497817;28;20584;-84
2021/09/27 05:37:33;;;;;;;12.80;11.67;;;17.30;99.90;;;;;;10484975;28;20217;-86
2021/09/27 05:42:45;;;;;;;17.37;15.87;;;17.20;99.90;;;;;;10489433;28;20219;-83
2021/09/27 05:47:59;;;;;;;16.90;15.20;;;17.20;99.90;;;;;;10483817;28;20243;-83
2021/09/27 05:53:09;;;;;;;18.53;16.77;;;17.20;99.90;;;;;;10503876;28;20221;-83
2021/09/27 05:58:18;;;;;;;16.90;15.40;;;17.20;99.90;;;;;;10471590;28;20254;-83
2021/09/27 06:03:54;;;;;;;17.97;16.27;;;17.20;99.90;;;;;;10498646;28;20217;-84
2021/09/27 06:09:12;;;;;;;17.23;15.83;;;17.20;99.90;;;;;;10466090;28;20250;-84
2021/09/27 06:14:17;;;;;;;19.03;17.30;;;17.20;99.90;;;;;;10481893;28;20189;-83
2021/09/27 06:19:24;;;;;;;18.27;16.67;;;17.20;99.90;;;;;;10484240;28;20197;-86
2021/09/27 06:24:39;;;;;;;18.50;16.90;;;17.20;99.90;;;;;;10487205;28;20212;-83
2021/09/27 06:29:57;;;;;;;18.23;16.60;;;17.30;99.90;;;;;;10469689;28;20285;-84
2021/09/27 06:35:05;;;;;;;18.80;17.10;;;17.40;99.90;;;;;;10450723;28;20243;-85
2021/09/27 06:40:10;;;;;;;19.37;17.50;;;17.50;99.90;;;;;;10433769;28;20731;-83
2021/09/27 06:45:13;;;;;;;18.23;16.63;;;17.50;99.90;;;;;;10427698;28;20232;-83
2021/09/27 06:50:24;;;;;;;18.93;17.13;;;17.60;99.90;;;;;;10440979;28;20228;-83
2021/09/27 06:55:26;;;;;;;17.97;16.37;;;17.60;99.90;;;;;;10451089;28;20672;-85
2021/09/27 07:00:30;;;;;;;19.00;17.30;;;17.60;99.90;;;;;;10484207;28;20760;-84
2021/09/27 07:05:34;;;;;;;16.87;15.40;;;17.70;99.90;;;;;;10483306;28;20212;-84
2021/09/27 07:10:36;;;;;;;17.70;16.10;;;17.80;99.90;;;;;;10484631;28;20250;-84
2021/09/27 07:15:38;;;;;;;16.70;15.17;;;17.80;99.90;;;;;;10468063;28;20291;-83
2021/09/27 07:20:42;;;;;;;17.80;16.20;;;17.90;99.90;;;;;;10485177;28;20303;-83
2021/09/27 07:25:50;;;;;;;15.27;14.00;;;17.90;99.90;;;;;;10485636;28;20676;-83
2021/09/27 07:30:52;;;;;;;15.03;13.63;;;17.90;99.90;;;;;;10485464;28;20240;-84
2021/09/27 07:35:56;;;;;;;16.10;14.80;;;18.00;99.90;;;;;;10469422;28;20192;-84
2021/09/27 07:40:59;;;;;;;13.33;12.23;;;18.00;99.90;;;;;;10489883;22;20265;-84
2021/09/27 07:46:02;;;;;;;15.33;14.00;;;18.10;99.90;;;;;;10375769;28;20768;-83
2021/09/27 07:51:05;;;;;;;13.07;11.97;;;18.10;99.90;;;;;;10376929;28;20253;-83
2021/09/27 07:56:07;;;;;;;14.23;13.03;;;18.20;99.90;;;;;;10378722;28;20678;-83
2021/09/27 08:01:10;;;;;;;12.50;11.40;;;18.30;99.90;;;;;;10378689;28;20233;-83
2021/09/27 08:06:15;;;;;;;12.10;11.20;;;18.30;99.90;;;;;;10360833;28;20230;-83
2021/09/27 08:11:17;;;;;;;11.47;10.37;;;18.40;99.90;;;;;;10377969;28;20266;-83
2021/09/27 08:16:19;;;;;;;12.17;11.07;;;18.50;99.90;;;;;;10358669;28;20237;-83
2021/09/27 08:21:23;;;;;;;12.13;11.20;;;18.60;99.90;;;;;;10359495;28;20249;-83
2021/09/27 08:26:25;;;;;;;10.30;9.40;;;18.70;99.90;;;;;;10342376;28;20227;-83
2021/09/27 08:31:27;;;;;;;9.47;8.67;;;18.80;99.90;;;;;;10335052;28;20216;-83
2021/09/27 08:36:31;;;;;;;8.67;7.87;;;18.80;99.90;;;;;;10335429;28;20203;-83
2021/09/27 08:41:41;;;;;;;8.40;7.70;;;18.90;99.90;;;;;;10335790;28;20285;-83
2021/09/27 08:46:49;;;;;;;8.90;8.20;;;19.00;99.90;;;;;;10316805;28;20321;-83
2021/09/27 08:51:52;;;;;;;10.53;9.60;;;19.00;99.90;;;;;;10333385;28;20207;-83
2021/09/27 08:57:00;;;;;;;7.10;6.60;;;19.10;99.90;;;;;;10353567;28;20585;-83
2021/09/27 09:02:10;;;;;;;7.20;6.70;;;19.10;99.90;;;;;;10356887;28;20223;-83
2021/09/27 09:07:17;;;;;;;6.50;6.10;;;19.20;99.90;;;;;;10373075;28;20226;-83
2021/09/27 09:12:22;;;;;;;6.73;6.10;;;19.20;99.90;;;;;;10371835;28;20214;-83
2021/09/27 09:17:31;;;;;;;6.73;6.23;;;19.30;99.90;;;;;;10354405;28;20214;-84
2021/09/27 09:22:38;;;;;;;6.50;6.00;;;19.40;99.90;;;;;;10353757;28;20574;-84
2021/09/27 09:27:41;;;;;;;6.40;6.00;;;19.50;99.90;;;;;;10327353;28;20231;-84
2021/09/27 09:32:43;;;;;;;6.23;5.67;;;19.70;99.90;;;;;;10312254;28;20219;-84
2021/09/27 09:37:52;;;;;;;6.10;5.70;;;19.80;99.90;;;;;;10313184;28;20278;-84
2021/09/27 09:42:57;;;;;;;5.77;5.37;;;20.00;99.90;;;;;;10329029;28;20226;-84
2021/09/27 09:48:15;;;;;;;5.70;5.40;;;20.20;99.90;;;;;;10328822;28;20307;-84
2021/09/27 09:53:25;;;;;;;5.67;5.27;;;20.30;99.90;;;;;;10329169;28;20215;-84
2021/09/27 09:58:40;;;;;;;5.53;5.13;;;20.40;99.90;;;;;;10376325;28;20732;-84
2021/09/27 10:03:45;;;;;;;5.73;5.33;;;20.50;99.90;;;;;;10385482;28;20676;-84
2021/09/27 10:08:55;;;;;;;5.40;5.00;;;20.50;99.90;;;;;;10385167;28;20229;-84
2021/09/27 10:13:57;;;;;;;5.23;4.93;;;20.50;99.90;;;;;;10400825;28;20595;-84
2021/09/27 10:19:18;;;;;;;5.43;4.97;;;20.40;99.90;;;;;;10401126;28;20191;-84
2021/09/27 10:24:33;;;;;;;5.63;4.90;;;20.40;99.90;;;;;;10401668;28;20569;-83
2021/09/27 10:29:35;;;;;;;6.07;5.57;;;20.40;99.90;;;;;;10385589;28;20248;-84
2021/09/27 10:34:38;;;;;;;5.77;5.37;;;20.30;99.90;;;;;;10417601;28;20277;-84
2021/09/27 10:39:43;;;;;;;5.50;5.10;;;20.30;99.90;;;;;;10402560;28;20584;-83
2021/09/27 10:44:47;;;;;;;6.23;5.67;;;20.30;99.90;;;;;;10400561;28;20717;-84
2021/09/27 10:49:54;;;;;;;5.17;4.80;;;20.20;99.90;;;;;;10400663;28;20231;-84
2021/09/27 10:55:00;;;;;;;5.80;5.40;;;20.20;99.90;;;;;;10413557;28;20190;-83
2021/09/27 11:00:14;;;;;;;5.93;5.30;;;20.20;99.90;;;;;;10374145;28;20219;-84
2021/09/27 11:05:41;;;;;;;4.97;4.67;;;20.20;99.90;;;;;;10357105;28;20253;-84
2021/09/27 11:10:48;;;;;;;4.93;4.53;;;20.30;99.90;;;;;;10373182;28;20225;-84
2021/09/27 11:15:56;;;;;;;4.93;4.63;;;20.30;99.90;;;;;;10373225;28;20605;-84
2021/09/27 11:21:17;;;;;;;4.77;4.37;;;20.30;99.90;;;;;;10373993;28;20232;-84
2021/09/27 11:26:33;;;;;;;4.97;4.57;;;20.40;99.90;;;;;;10388957;28;20222;-84
2021/09/27 11:31:40;;;;;;;4.63;3.67;;;20.40;99.90;;;;;;10373357;28;20229;-84
2021/09/27 11:37:06;;;;;;;4.10;3.80;;;20.40;99.90;;;;;;10372336;28;20222;-84
2021/09/27 11:42:24;;;;;;;4.03;3.77;;;20.40;99.90;;;;;;10356256;28;20280;-84
2021/09/27 11:47:45;;;;;;;4.20;3.90;;;20.40;99.90;;;;;;10372184;28;20593;-84
2021/09/27 11:52:54;;;;;;;4.30;4.00;;;20.50;99.90;;;;;;10355187;28;20218;-84
2021/09/27 11:58:04;;;;;;;4.10;3.70;;;20.50;99.90;;;;;;10331536;28;20233;-84
2021/09/27 12:03:16;;;;;;;3.77;3.57;;;20.60;99.90;;;;;;10314350;28;20317;-84
2021/09/27 12:08:25;;;;;;;3.70;3.40;;;20.70;99.90;;;;;;10315012;28;20239;-84
2021/09/27 12:13:58;;;;;;;3.50;3.30;;;20.90;99.90;;;;;;10330843;28;20318;-84
2021/09/27 12:19:30;;;;;;;3.70;3.40;;;21.10;99.90;;;;;;10315832;28;20588;-84
2021/09/27 12:24:39;;;;;;;3.23;3.03;;;21.30;99.90;;;;;;10330285;28;20208;-84
2021/09/27 12:29:53;;;;;;;3.20;3.00;;;21.40;99.90;;;;;;10330213;28;20604;-84
2021/09/27 12:34:59;;;;;;;4.83;3.60;;;21.50;99.90;;;;;;10330169;28;20222;-84
2021/09/27 12:40:04;;;;;;;4.20;3.90;;;21.60;99.90;;;;;;10331538;28;20223;-84
2021/09/27 12:45:17;;;;;;;3.50;3.20;;;21.70;99.90;;;;;;10313185;28;20234;-84
2021/09/27 12:50:23;;;;;;;3.70;3.50;;;21.80;99.90;;;;;;10330400;28;20230;-84
2021/09/27 12:55:33;;;;;;;3.70;3.50;;;21.90;99.90;;;;;;10336440;28;20286;-84
2021/09/27 13:00:41;;;;;;;4.10;3.70;;;22.00;99.90;;;;;;10370469;28;20765;-84
2021/09/27 13:05:52;;;;;;;4.30;4.00;;;22.00;99.90;;;;;;10353359;28;20222;-84
2021/09/27 13:10:57;;;;;;;3.93;3.63;;;22.10;99.90;;;;;;10371833;28;20214;-84
2021/09/27 13:16:04;;;;;;;3.60;3.40;;;22.20;99.90;;;;;;10353224;28;20222;-84
2021/09/27 13:21:11;;;;;;;3.93;3.67;;;22.30;99.90;;;;;;10353577;28;20619;-84
2021/09/27 13:26:19;;;;;;;3.60;3.40;;;22.30;99.90;;;;;;10366049;28;20238;-84
2021/09/27 13:31:25;;;;;;;3.63;3.33;;;22.30;99.90;;;;;;10393457;28;20225;-84
2021/09/27 13:36:41;;;;;;;3.47;3.27;;;22.20;99.90;;;;;;10401642;28;20194;-84
2021/09/27 13:41:50;;;;;;;3.07;2.97;;;22.10;99.90;;;;;;10402525;28;20288;-84
2021/09/27 13:46:54;;;;;;;3.70;3.50;;;21.90;99.90;;;;;;10418570;28;20234;-84
2021/09/27 13:51:56;;;;;;;4.40;4.10;;;21.80;99.90;;;;;;10429043;28;20272;-84
2021/09/27 13:56:58;;;;;;;4.90;4.33;;;21.70;99.90;;;;;;10399207;28;20649;-84
2021/09/27 14:07:18;;;;;;;4.20;3.90;;;21.80;99.90;;;;;;10377981;28;20234;-84
2021/09/27 14:12:20;;;;;;;4.50;4.20;;;21.80;99.90;;;;;;10376552;28;20273;-84
2021/09/27 14:17:24;;;;;;;4.73;4.37;;;21.80;99.90;;;;;;10376837;28;20202;-84
2021/09/27 14:22:27;;;;;;;4.63;4.27;;;21.80;99.90;;;;;;10359972;28;20226;-84
2021/09/27 14:27:29;;;;;;;5.00;4.60;;;21.80;99.90;;;;;;10375935;28;20307;-84
2021/09/27 14:32:32;;;;;;;4.40;4.00;;;21.80;99.90;;;;;;10376896;28;20219;-84
2021/09/27 14:37:35;;;;;;;4.90;4.60;;;21.80;99.90;;;;;;10375477;28;20190;-84
2021/09/27 14:42:38;;;;;;;4.30;3.90;;;21.70;99.90;;;;;;10378713;28;20230;-83
2021/09/27 14:47:44;;;;;;;5.23;4.80;;;21.60;99.90;;;;;;10363899;28;20241;-82
2021/09/27 14:52:46;;;;;;;4.60;4.20;;;21.60;99.90;;;;;;10380377;28;20253;-82
2021/09/27 14:57:48;;;;;;;4.53;4.23;;;21.60;99.90;;;;;;10404808;28;20210;-82
2021/09/27 15:02:52;;;;;;;5.73;5.23;;;21.60;99.90;;;;;;10405041;28;20233;-82
2021/09/27 15:07:54;;;;;;;5.33;4.90;;;21.60;99.90;;;;;;10405124;28;20235;-83
2021/09/27 15:12:56;;;;;;;4.67;4.27;;;21.50;99.90;;;;;;10422299;28;20305;-83
2021/09/27 15:17:59;;;;;;;5.23;4.87;;;21.50;99.90;;;;;;10401583;28;20225;-84
2021/09/27 15:23:04;;;;;;;5.27;4.77;;;21.50;99.90;;;;;;10399940;28;20222;-84
2021/09/27 15:28:06;;;;;;;5.63;5.00;;;21.50;99.90;;;;;;10346438;28;20238;-84
2021/09/27 15:33:10;;;;;;;5.57;5.07;;;21.40;99.90;;;;;;10315928;28;20234;-83
2021/09/27 15:38:15;;;;;;;4.80;4.43;;;21.40;99.90;;;;;;10316137;28;20209;-84
2021/09/27 15:43:18;;;;;;;5.40;4.90;;;21.40;99.90;;;;;;10331903;28;20261;-84
2021/09/27 15:48:23;;;;;;;4.67;4.30;;;21.40;99.90;;;;;;10331450;28;20229;-84
2021/09/27 15:53:25;;;;;;;5.07;4.63;;;21.40;99.90;;;;;;10331756;28;20239;-84
2021/09/27 15:58:33;;;;;;;4.70;4.40;;;21.30;99.90;;;;;;10376823;28;20669;-84
2021/09/27 16:03:37;;;;;;;6.80;4.23;;;21.20;99.90;;;;;;10373769;28;20316;-84
2021/09/27 16:08:40;;;;;;;4.73;4.43;;;21.20;99.90;;;;;;10355255;28;20305;-84
2021/09/27 16:13:42;;;;;;;5.43;5.00;;;21.10;99.90;;;;;;10371423;28;20214;-84
2021/09/27 16:18:48;;;;;;;4.93;4.53;;;21.10;99.90;;;;;;10355631;28;20207;-83
2021/09/27 16:23:51;;;;;;;5.37;5.07;;;20.90;99.90;;;;;;10371663;28;20218;-84
2021/09/27 16:28:53;;;;;;;5.87;4.67;;;20.90;99.90;;;;;;10354452;28;20230;-84
2021/09/27 16:33:57;;;;;;;4.80;4.50;;;20.90;99.90;;;;;;10355001;28;20223;-84
2021/09/27 16:39:02;;;;;;;4.33;4.13;;;20.90;99.90;;;;;;10371271;28;20194;-84
2021/09/27 16:44:07;;;;;;;4.90;4.50;;;20.90;99.90;;;;;;10371199;28;20250;-84
2021/09/27 16:49:12;;;;;;;5.53;5.13;;;20.90;99.90;;;;;;10387257;28;20615;-84
2021/09/27 16:54:14;;;;;;;5.50;4.97;;;20.90;99.90;;;;;;10354321;28;20229;-84
2021/09/27 16:59:16;;;;;;;5.60;4.17;;;20.80;99.90;;;;;;10375164;28;20175;-84
2021/09/27 17:04:20;;;;;;;5.00;4.60;;;20.80;99.90;;;;;;10354275;28;20238;-84
2021/09/27 17:09:22;;;;;;;5.23;4.83;;;20.70;99.90;;;;;;10370236;28;20226;-84
2021/09/27 17:19:45;;;;;;;5.03;4.73;;;20.60;99.90;;;;;;10370024;28;20218;-84
2021/09/27 17:24:50;;;;;;;5.07;4.77;;;20.50;99.90;;;;;;10370403;28;20199;-83
2021/09/27 17:29:54;;;;;;;4.73;4.30;;;20.50;99.90;;;;;;10407698;28;20280;-83
2021/09/27 17:34:57;;;;;;;4.77;4.30;;;20.50;99.90;;;;;;10410318;28;20217;-84
2021/09/27 17:39:59;;;;;;;4.40;4.17;;;20.40;99.90;;;;;;10393883;28;20249;-83
2021/09/27 17:45:02;;;;;;;4.17;3.93;;;20.30;99.90;;;;;;10410925;28;20190;-84
2021/09/27 17:50:11;;;;;;;4.70;4.40;;;20.20;99.90;;;;;;10393679;28;20233;-83
2021/09/27 17:55:14;;;;;;;4.80;4.50;;;20.10;99.90;;;;;;10409852;28;20206;-83
2021/09/27 18:00:17;;;;;;;6.30;5.80;;;20.00;99.90;;;;;;10409661;28;20206;-84
2021/09/27 18:05:21;;;;;;;5.70;5.30;;;19.90;99.90;;;;;;10393206;28;20202;-83
2021/09/27 18:10:23;;;;;;;6.67;4.67;;;19.80;99.90;;;;;;10409732;28;20237;-83
2021/09/27 18:15:26;;;;;;;4.90;4.50;;;19.70;99.90;;;;;;10392987;28;20206;-83
2021/09/27 18:20:30;;;;;;;5.60;4.33;;;19.60;99.90;;;;;;10396946;28;20221;-83
2021/09/27 18:25:33;;;;;;;4.63;4.33;;;19.60;99.90;;;;;;10416214;28;20264;-83
2021/09/27 18:30:36;;;;;;;4.20;4.00;;;19.50;99.90;;;;;;10375454;28;20236;-83
2021/09/27 18:35:44;;;;;;;4.47;4.17;;;19.50;99.90;;;;;;10376061;28;20198;-83
2021/09/27 18:40:49;;;;;;;4.37;3.97;;;19.40;99.90;;;;;;10375453;28;20226;-83
2021/09/27 18:45:52;;;;;;;4.90;4.60;;;19.40;99.90;;;;;;10358357;28;20199;-84
2021/09/27 18:50:57;;;;;;;5.63;5.10;;;19.30;99.90;;;;;;10359618;28;20227;-83
2021/09/27 18:56:02;;;;;;;5.50;4.20;;;19.30;99.90;;;;;;10358678;28;20207;-83
2021/09/27 19:01:07;;;;;;;8.93;7.80;;;19.30;99.90;;;;;;10374634;28;20211;-83
2021/09/27 19:06:11;;;;;;;5.07;4.00;;;19.30;99.90;;;;;;10357954;28;20759;-83
2021/09/27 19:11:13;;;;;;;5.53;5.13;;;19.20;99.90;;;;;;10358209;28;20227;-83
2021/09/27 19:16:17;;;;;;;4.97;4.57;;;19.20;99.90;;;;;;10357777;28;20223;-83
2021/09/27 19:21:23;;;;;;;8.90;5.30;;;19.20;99.90;;;;;;10374003;28;20227;-83
2021/09/27 19:26:28;;;;;;;8.77;7.97;;;19.10;99.90;;;;;;10373290;28;20216;-84
2021/09/27 19:31:31;;;;;;;9.07;8.17;;;19.10;99.90;;;;;;10356438;28;20250;-83
2021/09/27 19:36:34;;;;;;;6.13;5.10;;;19.10;99.90;;;;;;10373258;28;20191;-83
2021/09/27 19:41:36;;;;;;;4.67;4.33;;;19.10;99.90;;;;;;10358149;28;20226;-82
2021/09/27 19:46:41;;;;;;;4.40;4.10;;;19.10;99.90;;;;;;10373838;28;20245;-82
2021/09/27 19:51:44;;;;;;;4.73;4.43;;;19.10;99.90;;;;;;10373617;28;20718;-83
2021/09/27 19:56:46;;;;;;;4.93;4.50;;;19.10;99.90;;;;;;10383591;28;20236;-82
2021/09/27 20:01:49;;;;;;;4.50;4.20;;;19.10;99.90;;;;;;10414852;28;20761;-82
2021/09/27 20:06:52;;;;;;;4.20;3.80;;;19.10;99.90;;;;;;10396718;28;20356;-82
2021/09/27 20:11:54;;;;;;;4.20;3.80;;;19.10;99.90;;;;;;10397240;28;20221;-83
2021/09/27 20:16:56;;;;;;;4.67;4.33;;;19.00;99.90;;;;;;10412469;28;20643;-83
2021/09/27 20:22:00;;;;;;;4.70;4.30;;;19.00;99.90;;;;;;10413709;28;20218;-83
2021/09/27 20:27:02;;;;;;;6.53;5.00;;;19.00;99.90;;;;;;10383466;28;20221;-83
2021/09/27 20:32:05;;;;;;;5.47;4.30;;;19.00;99.90;;;;;;10371975;28;20249;-83
2021/09/27 20:37:09;;;;;;;4.80;4.50;;;19.10;99.90;;;;;;10374905;28;20222;-83
2021/09/27 20:42:11;;;;;;;3.77;3.57;;;19.20;99.90;;;;;;10373800;28;20333;-82
2021/09/27 20:47:14;;;;;;;4.10;3.87;;;19.20;99.90;;;;;;10374677;28;20233;-83
2021/09/27 20:52:17;;;;;;;4.77;4.47;;;19.20;99.90;;;;;;10374732;28;20668;-83
2021/09/27 20:57:19;;;;;;;4.40;4.20;;;19.20;99.90;;;;;;10375000;28;20584;-83
2021/09/27 21:02:21;;;;;;;4.70;4.40;;;19.30;99.90;;;;;;10374701;28;20218;-83
2021/09/27 21:07:25;;;;;;;5.87;4.40;;;19.30;99.90;;;;;;10378272;28;20222;-83
2021/09/27 21:12:27;;;;;;;4.23;4.03;;;19.30;99.90;;;;;;10354787;28;20701;-83
2021/09/27 21:17:29;;;;;;;4.73;4.23;;;19.30;99.90;;;;;;10354144;28;20202;-82
2021/09/27 21:22:33;;;;;;;4.30;4.00;;;19.30;99.90;;;;;;10371335;28;20230;-82
2021/09/27 21:27:35;;;;;;;4.30;3.53;;;19.30;99.90;;;;;;10391198;28;20214;-83
2021/09/27 21:32:37;;;;;;;5.20;4.53;;;19.30;99.90;;;;;;10395451;28;20225;-83
2021/09/27 21:37:41;;;;;;;3.97;3.77;;;19.20;99.90;;;;;;10412026;28;20205;-83
2021/09/27 21:42:43;;;;;;;4.40;4.10;;;19.20;99.90;;;;;;10410555;28;20226;-82
2021/09/27 21:47:46;;;;;;;3.87;3.67;;;19.20;99.90;;;;;;10411510;28;20209;-83
2021/09/27 21:52:49;;;;;;;4.43;4.03;;;19.20;99.90;;;;;;10394734;28;20697;-83
2021/09/27 21:57:51;;;;;;;5.50;3.83;;;19.20;99.90;;;;;;10401793;28;20203;-83
2021/09/27 22:02:53;;;;;;;4.40;4.10;;;19.20;99.90;;;;;;10363652;28;20219;-82
2021/09/27 22:07:59;;;;;;;4.07;3.77;;;19.20;99.90;;;;;;10380090;28;20237;-83
2021/09/27 22:13:03;;;;;;;4.93;4.57;;;19.20;99.90;;;;;;10379680;28;20713;-83
2021/09/27 22:18:06;;;;;;;4.13;3.83;;;19.20;99.90;;;;;;10362840;28;20266;-83
2021/09/27 22:23:10;;;;;;;4.77;4.37;;;19.20;99.90;;;;;;10378667;28;20237;-83
2021/09/27 22:28:12;;;;;;;4.70;4.40;;;19.30;99.90;;;;;;10384407;28;20320;-83
2021/09/27 22:33:14;;;;;;;5.27;4.87;;;19.30;99.90;;;;;;10403140;28;20228;-83
2021/09/27 22:38:18;;;;;;;5.00;4.60;;;19.30;99.90;;;;;;10403042;28;20643;-83
2021/09/27 22:43:20;;;;;;;4.50;4.20;;;19.30;99.90;;;;;;10418937;28;20300;-83
2021/09/27 22:48:23;;;;;;;4.93;4.53;;;19.30;99.90;;;;;;10418693;28;20228;-83
2021/09/27 22:53:27;;;;;;;4.27;4.00;;;19.30;99.90;;;;;;10400921;28;20316;-83
2021/09/27 22:58:29;;;;;;;4.70;4.40;;;19.40;99.90;;;;;;10394787;28;20234;-83
2021/09/27 23:03:31;;;;;;;4.70;4.40;;;19.40;99.90;;;;;;10378903;28;20215;-83
2021/09/27 23:08:47;;;;;;;5.17;4.67;;;19.40;99.90;;;;;;10379533;28;20305;-83
2021/09/27 23:13:49;;;;;;;3.30;3.10;;;19.40;99.90;;;;;;10377856;28;20301;-83
2021/09/27 23:18:51;;;;;;;3.20;2.87;;;19.40;99.90;;;;;;10377671;28;20201;-83
2021/09/27 23:23:54;;;;;;;2.20;2.10;;;19.50;99.90;;;;;;10392797;28;20214;-83
2021/09/27 23:28:57;;;;;;;1.87;1.77;;;19.40;99.90;;;;;;10389533;28;20226;-83
2021/09/27 23:33:59;;;;;;;2.17;1.50;;;19.30;99.90;;;;;;10377309;28;20226;-83
2021/09/27 23:39:02;;;;;;;1.60;1.50;;;19.20;99.90;;;;;;10360564;28;20198;-83
2021/09/27 23:44:05;;;;;;;1.77;1.67;;;19.20;99.90;;;;;;10361198;28;20230;-83
2021/09/27 23:49:07;;;;;;;1.53;1.53;;;19.10;99.90;;;;;;10361269;28;20231;-83
2021/09/27 23:54:10;;;;;;;2.03;1.67;;;19.10;99.90;;;;;;10376527;28;20770;-83
2021/09/27 23:59:12;;;;;;;1.40;1.40;;;19.10;99.90;;;;;;10391119;28;20219;-83
